Albany, Missouri
Current Conditions -  °F | °C
As of 9:06 AM on Sunday 21 Dec 2014 (Local Time) from KLWD Reporting Station
Haze Haze  
Wind Chill: 28°   Ceiling: 1700
Heat Index: 37°   Visibility: 6mi
Dew Point: 34°   Wind: 15mph
Humidity: 89%   Direction: 180°S
Pressure: 29.99"   Gusts: NA
Location:  40.25°N, 94.33°W
Report Text: KLWD 211506Z AUTO 18013KT 6SM BR SCT007 OVC017 03/01 A2999 RMK AO2 T00280011
Loading
Personal Weather Stations






























Interactive Weather Map New forecast layout! Learn more

10-Day Weather Forecast

Advertisements
Track Severe Weather on mobile